createdAt,value
2022-11-25T00:01:59.024Z,95.0
2022-11-25T00:07:05.191Z,95.0
2022-11-25T00:12:11.400Z,95.0
2022-11-25T00:17:17.604Z,95.0
2022-11-25T00:22:23.819Z,95.0
2022-11-25T00:27:30.050Z,95.0
2022-11-25T00:32:36.233Z,95.0
2022-11-25T00:37:42.444Z,95.0
2022-11-25T00:42:48.647Z,95.5
2022-11-25T00:47:54.853Z,95.5
2022-11-25T00:53:01.056Z,95.5
2022-11-25T00:58:07.269Z,95.5
2022-11-25T01:03:12.505Z,95.5
2022-11-25T01:08:18.712Z,95.5
2022-11-25T01:13:23.939Z,95.5
2022-11-25T01:18:30.154Z,95.5
2022-11-25T01:23:36.363Z,95.5
2022-11-25T01:28:42.567Z,95.5
2022-11-25T01:33:48.780Z,96.0
2022-11-25T01:38:54.979Z,96.0
2022-11-25T01:44:01.192Z,96.0
2022-11-25T01:49:07.400Z,96.0
2022-11-25T01:54:13.607Z,96.0
2022-11-25T01:59:19.818Z,96.0
2022-11-25T02:04:26.020Z,96.0
2022-11-25T02:09:32.235Z,96.0
2022-11-25T02:14:38.709Z,96.0
2022-11-25T02:19:44.645Z,96.0
2022-11-25T02:24:50.853Z,96.5
2022-11-25T02:29:57.064Z,96.5
2022-11-25T02:35:03.267Z,96.5
2022-11-25T02:40:09.490Z,96.5
2022-11-25T02:45:15.682Z,96.5
2022-11-25T02:50:21.895Z,97.0
2022-11-25T02:55:28.101Z,96.5
2022-11-25T03:00:33.335Z,97.0
2022-11-25T03:05:39.556Z,97.0
2022-11-25T03:10:44.773Z,97.0
2022-11-25T03:15:50.991Z,97.0
2022-11-25T03:20:57.194Z,97.0
2022-11-25T03:26:03.410Z,97.0
2022-11-25T03:31:09.609Z,97.0
2022-11-25T03:36:15.820Z,97.0
2022-11-25T03:41:22.049Z,97.0
2022-11-25T03:46:28.244Z,97.0
2022-11-25T03:51:34.443Z,97.0
2022-11-25T03:56:40.651Z,97.0
2022-11-25T04:01:46.893Z,97.0
2022-11-25T04:06:53.070Z,97.0
2022-11-25T04:11:59.280Z,97.5
2022-11-25T04:17:05.524Z,97.5
2022-11-25T04:22:11.691Z,97.5
2022-11-25T04:27:20.191Z,97.5
2022-11-25T04:32:24.109Z,97.5
2022-11-25T04:37:30.319Z,97.5
2022-11-25T04:42:36.552Z,97.5
2022-11-25T04:47:42.727Z,97.5
2022-11-25T04:52:48.930Z,97.5
2022-11-25T04:57:54.172Z,97.5
2022-11-25T05:03:00.383Z,97.5
2022-11-25T05:08:05.621Z,97.5
2022-11-25T05:13:11.826Z,97.5
2022-11-25T05:18:18.043Z,98.0
2022-11-25T05:23:24.249Z,98.0
2022-11-25T05:28:30.448Z,98.0
2022-11-25T05:33:36.653Z,98.0
2022-11-25T05:38:42.868Z,98.0
2022-11-25T05:43:49.073Z,98.0
2022-11-25T05:48:55.304Z,98.0
2022-11-25T05:54:01.490Z,98.0
2022-11-25T05:59:07.696Z,98.0
2022-11-25T06:04:13.946Z,98.0
2022-11-25T06:09:20.113Z,98.0
2022-11-25T06:14:25.338Z,98.0
2022-11-25T06:19:31.548Z,98.0
2022-11-25T06:24:37.989Z,98.0
2022-11-25T06:29:43.964Z,98.0
2022-11-25T06:34:50.188Z,98.0
2022-11-25T06:39:56.375Z,98.0
2022-11-25T06:45:02.587Z,98.0
2022-11-25T06:50:08.791Z,98.0
2022-11-25T06:55:14.104Z,98.5
2022-11-25T07:00:20.238Z,98.0
2022-11-25T07:05:25.470Z,98.0
2022-11-25T07:10:31.693Z,98.5
2022-11-25T07:15:37.893Z,98.5
2022-11-25T07:20:44.123Z,98.5
2022-11-25T07:25:50.301Z,98.5
2022-11-25T07:36:02.718Z,98.5
2022-11-25T07:41:08.953Z,98.5
2022-11-25T07:46:16.323Z,98.5
2022-11-25T07:51:21.342Z,98.5
2022-11-25T07:56:27.553Z,98.5
2022-11-25T08:01:33.869Z,98.5
2022-11-25T08:06:39.997Z,98.5
2022-11-25T08:11:46.178Z,98.5
2022-11-25T08:16:52.385Z,98.5
2022-11-25T08:21:58.589Z,98.5
2022-11-25T08:27:04.790Z,98.5
2022-11-25T08:32:12.106Z,98.5
2022-11-25T08:37:17.204Z,98.5
2022-11-25T08:42:23.417Z,98.5
2022-11-25T08:47:29.626Z,98.5
2022-11-25T08:52:34.876Z,98.5
2022-11-25T08:57:41.244Z,98.5
2022-11-25T09:02:46.356Z,98.5
2022-11-25T09:07:52.574Z,98.5
2022-11-25T09:12:58.714Z,98.5
2022-11-25T09:18:04.944Z,98.5
2022-11-25T09:23:11.131Z,98.5
2022-11-25T09:28:17.354Z,98.5
2022-11-25T09:33:23.556Z,98.5
2022-11-25T09:38:29.757Z,98.5
2022-11-25T09:43:35.961Z,98.5
2022-11-25T09:48:42.171Z,98.5
2022-11-25T09:53:48.383Z,98.5
2022-11-25T09:58:54.589Z,98.5
2022-11-25T10:04:00.800Z,98.5
2022-11-25T10:09:07.016Z,98.5
2022-11-25T10:14:13.214Z,98.5
2022-11-25T10:19:19.422Z,98.5
2022-11-25T10:24:25.634Z,98.5
2022-11-25T10:29:31.857Z,98.5
2022-11-25T10:34:38.203Z,98.5
2022-11-25T10:39:44.264Z,98.5
2022-11-25T10:44:50.472Z,98.5
2022-11-25T10:49:55.705Z,98.0
2022-11-25T10:55:01.903Z,98.0
2022-11-25T11:00:07.140Z,98.0
2022-11-25T11:05:13.488Z,97.5
2022-11-25T11:10:19.563Z,97.5
2022-11-25T11:15:25.773Z,97.5
2022-11-25T11:20:31.981Z,97.0
2022-11-25T11:25:38.300Z,97.0
2022-11-25T11:30:44.398Z,96.5
2022-11-25T11:35:50.598Z,96.5
2022-11-25T11:40:56.812Z,96.0
2022-11-25T11:46:03.014Z,95.5
2022-11-25T11:51:09.226Z,95.5
2022-11-25T12:01:21.640Z,95.0
2022-11-25T12:06:27.866Z,95.0
2022-11-25T12:11:34.053Z,94.5
2022-11-25T12:16:40.366Z,94.5
2022-11-25T12:21:46.467Z,94.0
2022-11-25T12:26:52.747Z,94.0
2022-11-25T12:31:58.975Z,93.5
2022-11-25T12:37:05.106Z,93.5
2022-11-25T12:42:11.318Z,93.0
2022-11-25T12:47:16.551Z,93.0
2022-11-25T12:52:22.769Z,92.5
2022-11-25T12:57:28.015Z,92.5
2022-11-25T13:02:34.286Z,92.5
2022-11-25T13:07:40.460Z,92.5
2022-11-25T13:12:47.037Z,92.0
2022-11-25T13:17:52.913Z,91.5
2022-11-25T13:22:59.062Z,91.5
2022-11-25T13:28:05.280Z,91.0
2022-11-25T13:33:11.484Z,91.0
2022-11-25T13:38:17.692Z,91.0
2022-11-25T13:43:23.911Z,91.0
2022-11-25T13:48:30.113Z,91.5
2022-11-25T13:53:36.323Z,91.5
2022-11-25T13:58:42.642Z,91.5
2022-11-25T14:03:48.773Z,91.5
2022-11-25T14:08:54.957Z,91.5
2022-11-25T14:14:01.166Z,91.5
2022-11-25T14:24:13.596Z,91.5
2022-11-25T14:29:19.794Z,91.5
2022-11-25T14:34:26.002Z,92.0
2022-11-25T14:39:32.218Z,92.0
2022-11-25T14:44:37.448Z,92.0
2022-11-25T14:49:59.642Z,92.0
2022-11-25T14:54:49.865Z,92.0
2022-11-25T14:59:56.076Z,92.0
2022-11-25T15:05:02.281Z,92.0
2022-11-25T15:10:08.488Z,92.0
2022-11-25T15:15:14.702Z,92.0
2022-11-25T15:20:20.916Z,92.0
2022-11-25T15:25:27.114Z,92.0
2022-11-25T15:30:33.322Z,92.5
2022-11-25T15:35:39.525Z,92.5
2022-11-25T15:40:45.743Z,92.5
2022-11-25T15:45:52.001Z,92.5
2022-11-25T15:50:58.149Z,92.5
2022-11-25T15:56:04.362Z,92.5
2022-11-25T16:01:10.612Z,92.5
2022-11-25T16:06:16.778Z,93.0
2022-11-25T16:11:23.052Z,93.0
2022-11-25T16:16:29.258Z,93.0
2022-11-25T16:21:35.399Z,93.0
2022-11-25T16:26:41.662Z,93.0
2022-11-25T16:31:47.019Z,93.5
2022-11-25T16:36:53.054Z,93.5
2022-11-25T16:41:58.290Z,93.5
2022-11-25T16:47:04.587Z,93.5
2022-11-25T16:52:09.739Z,94.0
2022-11-25T16:57:15.942Z,94.0
2022-11-25T17:02:22.357Z,94.0
2022-11-25T17:07:35.755Z,94.0
2022-11-25T17:12:34.585Z,94.5
2022-11-25T17:17:40.770Z,94.5
2022-11-25T17:22:46.990Z,94.5
2022-11-25T17:27:53.192Z,94.5
2022-11-25T17:32:59.395Z,94.5
2022-11-25T17:38:05.610Z,94.5
2022-11-25T17:43:11.825Z,94.5
2022-11-25T17:48:18.023Z,94.5
2022-11-25T17:53:24.225Z,95.0
2022-11-25T17:58:30.436Z,95.0
2022-11-25T18:03:36.643Z,95.0
2022-11-25T18:08:42.874Z,95.0
2022-11-25T18:13:49.053Z,95.5
2022-11-25T18:18:55.270Z,95.5
2022-11-25T18:24:01.510Z,95.5
2022-11-25T18:29:07.719Z,95.5
2022-11-25T18:34:13.915Z,95.5
2022-11-25T18:39:19.132Z,95.5
2022-11-25T18:44:26.324Z,95.5
2022-11-25T18:49:30.572Z,96.0
2022-11-25T18:54:37.016Z,96.0
2022-11-25T18:59:43.015Z,96.0
2022-11-25T19:04:49.200Z,96.0
2022-11-25T19:09:55.400Z,96.0
2022-11-25T19:15:01.606Z,96.0
2022-11-25T19:20:07.819Z,96.0
2022-11-25T19:25:14.037Z,96.0
2022-11-25T19:30:20.478Z,96.0
2022-11-25T19:35:26.455Z,96.0
2022-11-25T19:40:38.954Z,96.0
2022-11-25T19:45:38.936Z,96.0
2022-11-25T19:50:45.220Z,96.5
2022-11-25T19:55:51.273Z,96.5
2022-11-25T20:00:57.531Z,96.5
2022-11-25T20:06:03.689Z,96.5
2022-11-25T20:11:09.897Z,96.5
2022-11-25T20:16:16.146Z,96.5
2022-11-25T20:21:22.308Z,97.0
2022-11-25T20:26:28.524Z,97.0
2022-11-25T20:31:34.780Z,97.0
2022-11-25T20:36:39.961Z,97.0
2022-11-25T20:41:46.189Z,97.0
2022-11-25T20:46:52.377Z,97.0
2022-11-25T20:51:57.618Z,97.0
2022-11-25T20:57:03.825Z,97.0
2022-11-25T21:02:10.092Z,97.0
2022-11-25T21:07:16.284Z,97.0
2022-11-25T21:12:22.474Z,97.5
2022-11-25T21:17:28.658Z,97.5
2022-11-25T21:22:40.901Z,97.5
2022-11-25T21:27:41.065Z,97.5
2022-11-25T21:32:47.274Z,97.5
2022-11-25T21:37:53.476Z,97.5
2022-11-25T21:42:59.687Z,97.5
2022-11-25T21:48:05.903Z,97.5
2022-11-25T21:53:12.101Z,97.5
2022-11-25T21:58:18.338Z,97.5
2022-11-25T22:03:24.588Z,97.5
2022-11-25T22:13:36.936Z,97.5
2022-11-25T22:18:43.142Z,97.5
2022-11-25T22:23:49.347Z,97.5
2022-11-25T22:28:55.592Z,98.0
2022-11-25T22:34:01.850Z,98.0
2022-11-25T22:39:07.975Z,98.0
2022-11-25T22:44:13.207Z,98.0
2022-11-25T22:49:19.424Z,98.0
2022-11-25T22:54:24.676Z,98.0
2022-11-25T22:59:30.927Z,98.0
2022-11-25T23:04:37.258Z,98.0
2022-11-25T23:09:43.279Z,98.0
2022-11-25T23:14:49.504Z,98.0
2022-11-25T23:19:54.709Z,98.0
2022-11-25T23:25:00.993Z,98.0
2022-11-25T23:30:07.142Z,98.5
2022-11-25T23:35:13.334Z,98.5
2022-11-25T23:40:19.548Z,98.5
2022-11-25T23:45:25.839Z,98.5
2022-11-25T23:50:31.957Z,98.5
2022-11-25T23:55:38.172Z,98.5
